createdAt,value
2018-04-08T00:00:06.074Z,1002.61
2018-04-08T00:01:06.054Z,1002.66
2018-04-08T00:02:06.035Z,1002.63
2018-04-08T00:03:06.018Z,1002.63
2018-04-08T00:04:06.000Z,1002.63
2018-04-08T00:05:05.992Z,1002.64
2018-04-08T00:06:05.966Z,1002.63
2018-04-08T00:07:05.947Z,1002.65
2018-04-08T00:08:05.931Z,1002.66
2018-04-08T00:09:05.910Z,1002.63
2018-04-08T00:10:05.893Z,1002.63
2018-04-08T00:11:05.876Z,1002.61
2018-04-08T00:12:05.866Z,1002.61
2018-04-08T00:13:05.841Z,1002.63
2018-04-08T00:14:05.822Z,1002.58
2018-04-08T00:15:05.808Z,1002.59
2018-04-08T00:16:05.784Z,1002.60
2018-04-08T00:17:05.766Z,1002.54
2018-04-08T00:18:05.748Z,1002.54
2018-04-08T00:19:05.763Z,1002.56
2018-04-08T00:20:05.715Z,1002.57
2018-04-08T00:21:05.695Z,1002.56
2018-04-08T00:22:05.688Z,1002.54
2018-04-08T00:23:05.659Z,1002.54
2018-04-08T00:24:05.643Z,1002.49
2018-04-08T00:25:05.623Z,1002.55
2018-04-08T00:26:05.606Z,1002.50
2018-04-08T00:27:05.589Z,1002.47
2018-04-08T00:28:05.595Z,1002.49
2018-04-08T00:29:05.552Z,1002.52
2018-04-08T00:30:05.533Z,1002.49
2018-04-08T00:31:05.516Z,1002.49
2018-04-08T00:32:05.499Z,1002.45
2018-04-08T00:33:05.478Z,1002.43
2018-04-08T00:34:05.471Z,1002.44
2018-04-08T00:35:05.443Z,1002.43
2018-04-08T00:36:05.426Z,1002.42
2018-04-08T00:37:05.404Z,1002.43
2018-04-08T00:38:05.387Z,1002.42
2018-04-08T00:39:05.368Z,1002.44
2018-04-08T00:40:05.352Z,1002.43
2018-04-08T00:41:05.334Z,1002.44
2018-04-08T00:42:05.317Z,1002.42
2018-04-08T00:43:05.299Z,1002.41
2018-04-08T00:44:05.278Z,1002.42
2018-04-08T00:45:05.262Z,1002.38
2018-04-08T00:46:05.243Z,1002.32
2018-04-08T00:47:05.225Z,1002.35
2018-04-08T00:48:05.207Z,1002.36
2018-04-08T00:49:05.188Z,1002.34
2018-04-08T00:50:05.169Z,1002.33
2018-04-08T00:51:05.150Z,1002.33
2018-04-08T00:52:05.133Z,1002.29
2018-04-08T00:53:05.114Z,1002.29
2018-04-08T00:54:05.094Z,1002.30
2018-04-08T00:55:05.078Z,1002.25
2018-04-08T00:56:05.062Z,1002.28
2018-04-08T00:57:05.042Z,1002.27
2018-04-08T00:58:05.022Z,1002.26
2018-04-08T00:59:05.006Z,1002.27
2018-04-08T01:00:04.986Z,1002.31
2018-04-08T01:01:04.968Z,1002.30
2018-04-08T01:02:04.949Z,1002.30
2018-04-08T01:03:04.932Z,1002.28
2018-04-08T01:04:04.913Z,1002.26
2018-04-08T01:05:04.895Z,1002.28
2018-04-08T01:06:04.875Z,1002.29
2018-04-08T01:07:04.859Z,1002.29
2018-04-08T01:08:04.839Z,1002.29
2018-04-08T01:09:04.819Z,1002.26
2018-04-08T01:10:04.805Z,1002.29
2018-04-08T01:11:04.785Z,1002.28
2018-04-08T01:12:04.788Z,1002.25
2018-04-08T01:13:04.750Z,1002.26
2018-04-08T01:14:04.729Z,1002.26
2018-04-08T01:15:04.714Z,1002.29
2018-04-08T01:16:04.694Z,1002.24
2018-04-08T01:17:04.674Z,1002.28
2018-04-08T01:18:04.654Z,1002.23
2018-04-08T01:19:04.636Z,1002.24
2018-04-08T01:20:04.619Z,1002.19
2018-04-08T01:21:04.600Z,1002.20
2018-04-08T01:22:04.581Z,1002.19
2018-04-08T01:23:04.563Z,1002.20
2018-04-08T01:24:04.545Z,1002.16
2018-04-08T01:25:04.525Z,1002.15
2018-04-08T01:26:04.529Z,1002.15
2018-04-08T01:27:04.487Z,1002.14
2018-04-08T01:28:04.470Z,1002.14
2018-04-08T01:29:04.451Z,1002.18
2018-04-08T01:30:04.435Z,1002.13
2018-04-08T01:31:04.415Z,1002.17
2018-04-08T01:32:04.398Z,1002.16
2018-04-08T01:33:04.377Z,1002.16
2018-04-08T01:34:04.360Z,1002.14
2018-04-08T01:35:04.339Z,1002.13
2018-04-08T01:36:04.326Z,1002.11
2018-04-08T01:37:04.303Z,1002.13
2018-04-08T01:38:04.284Z,1002.06
2018-04-08T01:39:04.268Z,1002.08
2018-04-08T01:40:04.247Z,1002.11
2018-04-08T01:41:04.241Z,1002.08
2018-04-08T01:42:04.209Z,1002.08
2018-04-08T01:43:04.191Z,1002.06
2018-04-08T01:44:04.172Z,1002.07
2018-04-08T01:45:04.165Z,1002.07
2018-04-08T01:46:04.135Z,1002.05
2018-04-08T01:47:04.116Z,1002.05
2018-04-08T01:48:04.098Z,1002.07
2018-04-08T01:49:04.078Z,1002.04
2018-04-08T01:50:04.061Z,1002.06
2018-04-08T01:51:04.041Z,1002.07
2018-04-08T01:52:04.023Z,1002.06
2018-04-08T01:53:04.007Z,1002.06
2018-04-08T01:54:03.987Z,1002.07
2018-04-08T01:55:03.966Z,1002.06
2018-04-08T01:56:03.948Z,1002.05
2018-04-08T01:57:03.944Z,1002.05
2018-04-08T01:58:03.913Z,1002.01
2018-04-08T01:59:03.892Z,1002.06
2018-04-08T02:00:03.874Z,1002.08
2018-04-08T02:01:03.862Z,1002.05
2018-04-08T02:02:03.835Z,1002.06
2018-04-08T02:03:03.825Z,1002.04
2018-04-08T02:04:03.798Z,1002.04
2018-04-08T02:05:03.780Z,1002.06
2018-04-08T02:06:03.760Z,1002.10
2018-04-08T02:07:03.741Z,1002.10
2018-04-08T02:08:03.722Z,1002.10
2018-04-08T02:09:03.703Z,1002.06
2018-04-08T02:10:03.686Z,1002.12
2018-04-08T02:11:03.671Z,1002.10
2018-04-08T02:12:03.647Z,1002.08
2018-04-08T02:13:03.627Z,1002.07
2018-04-08T02:14:03.609Z,1002.05
2018-04-08T02:15:03.591Z,1002.02
2018-04-08T02:16:03.573Z,1002.01
2018-04-08T02:17:03.553Z,1002.03
2018-04-08T02:18:03.534Z,1002.02
2018-04-08T02:19:03.518Z,1002.02
2018-04-08T02:20:03.497Z,1002.04
2018-04-08T02:21:03.476Z,1002.01
2018-04-08T02:22:03.457Z,1002.04
2018-04-08T02:23:03.440Z,1002.04
2018-04-08T02:24:03.421Z,1002.01
2018-04-08T02:25:03.401Z,1002.00
2018-04-08T02:26:03.384Z,1002.03
2018-04-08T02:27:03.365Z,1002.06
2018-04-08T02:28:03.346Z,1002.05
2018-04-08T02:29:03.334Z,1002.05
2018-04-08T02:30:03.308Z,1002.06
2018-04-08T02:31:03.287Z,1002.05
2018-04-08T02:32:03.272Z,1002.07
2018-04-08T02:33:03.251Z,1002.00
2018-04-08T02:34:03.229Z,1002.03
2018-04-08T02:35:03.213Z,1002.02
2018-04-08T02:36:03.195Z,1002.00
2018-04-08T02:37:03.174Z,1001.99
2018-04-08T02:38:03.155Z,1001.99
2018-04-08T02:39:03.136Z,1001.98
2018-04-08T02:40:03.120Z,1002.01
2018-04-08T02:41:03.098Z,1002.00
2018-04-08T02:42:03.082Z,1002.06
2018-04-08T02:43:03.059Z,1002.03
2018-04-08T02:44:03.040Z,1002.02
2018-04-08T02:45:03.020Z,1002.02
2018-04-08T02:46:03.001Z,1002.02
2018-04-08T02:47:02.983Z,1002.00
2018-04-08T02:48:02.966Z,1002.00
2018-04-08T02:49:02.948Z,1002.01
2018-04-08T02:50:02.926Z,1001.97
2018-04-08T02:51:02.906Z,1001.98
2018-04-08T02:52:02.888Z,1001.98
2018-04-08T02:53:02.868Z,1001.96
2018-04-08T02:54:02.846Z,1001.94
2018-04-08T02:55:02.829Z,1001.92
2018-04-08T02:56:02.810Z,1001.90
2018-04-08T02:57:02.795Z,1001.94
2018-04-08T02:58:02.771Z,1001.92
2018-04-08T02:59:02.762Z,1001.94
2018-04-08T03:00:02.734Z,1001.91
2018-04-08T03:01:02.714Z,1001.87
2018-04-08T03:02:02.706Z,1001.91
2018-04-08T03:03:02.675Z,1001.87
2018-04-08T03:04:02.657Z,1001.87
2018-04-08T03:05:02.636Z,1001.90
2018-04-08T03:06:02.616Z,1001.91
2018-04-08T03:07:02.602Z,1001.90
2018-04-08T03:08:02.580Z,1001.90
2018-04-08T03:09:02.561Z,1001.92
2018-04-08T03:10:02.544Z,1001.89
2018-04-08T03:11:02.522Z,1001.90
2018-04-08T03:12:02.504Z,1001.88
2018-04-08T03:13:02.483Z,1001.87
2018-04-08T03:14:02.466Z,1001.84
2018-04-08T03:15:02.445Z,1001.89
2018-04-08T03:16:02.446Z,1001.86
2018-04-08T03:17:02.405Z,1001.85
2018-04-08T03:18:02.385Z,1001.86
2018-04-08T03:19:02.369Z,1001.85
2018-04-08T03:20:02.367Z,1001.82
2018-04-08T03:21:02.328Z,1001.83
2018-04-08T03:22:02.308Z,1001.82
2018-04-08T03:23:02.291Z,1001.83
2018-04-08T03:24:02.272Z,1001.80
2018-04-08T03:25:02.250Z,1001.80
2018-04-08T03:26:02.233Z,1001.81
2018-04-08T03:27:02.213Z,1001.81
2018-04-08T03:28:02.193Z,1001.81
2018-04-08T03:29:02.174Z,1001.85
2018-04-08T03:30:02.166Z,1001.82
2018-04-08T03:31:02.135Z,1001.80
2018-04-08T03:32:02.118Z,1001.82
2018-04-08T03:33:02.102Z,1001.81
2018-04-08T03:34:02.077Z,1001.84
2018-04-08T03:35:02.058Z,1001.79
2018-04-08T03:36:02.038Z,1001.75
2018-04-08T03:37:02.019Z,1001.73
2018-04-08T03:38:01.999Z,1001.76
2018-04-08T03:39:01.981Z,1001.76
2018-04-08T03:40:01.991Z,1001.75
2018-04-08T03:41:01.940Z,1001.74
2018-04-08T03:42:01.921Z,1001.78
2018-04-08T03:43:01.902Z,1001.75
2018-04-08T03:44:01.882Z,1001.77
2018-04-08T03:45:01.890Z,1001.74
2018-04-08T03:46:01.842Z,1001.75
2018-04-08T03:47:01.823Z,1001.77
2018-04-08T03:48:01.803Z,1001.78
2018-04-08T03:49:01.785Z,1001.71
2018-04-08T03:50:01.765Z,1001.76
2018-04-08T03:51:01.745Z,1001.76
2018-04-08T03:52:01.725Z,1001.77
2018-04-08T03:53:01.704Z,1001.76
2018-04-08T03:54:01.688Z,1001.73
2018-04-08T03:55:01.667Z,1001.71
2018-04-08T03:56:01.648Z,1001.72
2018-04-08T03:57:01.628Z,1001.72
2018-04-08T03:58:01.609Z,1001.71
2018-04-08T03:59:01.591Z,1001.69
2018-04-08T04:00:01.570Z,1001.68
2018-04-08T04:01:01.551Z,1001.70
2018-04-08T04:02:01.532Z,1001.73
2018-04-08T04:03:01.522Z,1001.74
2018-04-08T04:04:01.497Z,1001.73
2018-04-08T04:05:01.479Z,1001.74
2018-04-08T04:06:01.454Z,1001.75
2018-04-08T04:07:01.434Z,1001.71
2018-04-08T04:08:01.417Z,1001.74
2018-04-08T04:09:01.396Z,1001.71
2018-04-08T04:10:01.391Z,1001.70
2018-04-08T04:11:01.358Z,1001.68
2018-04-08T04:12:01.340Z,1001.69
2018-04-08T04:13:01.318Z,1001.64
2018-04-08T04:14:01.298Z,1001.64
2018-04-08T04:15:01.278Z,1001.65
2018-04-08T04:16:01.261Z,1001.65
2018-04-08T04:17:01.240Z,1001.67
2018-04-08T04:18:01.220Z,1001.67
2018-04-08T04:19:01.202Z,1001.68
2018-04-08T04:20:01.182Z,1001.65
2018-04-08T04:21:01.161Z,1001.70
2018-04-08T04:22:01.144Z,1001.71
2018-04-08T04:23:01.126Z,1001.68
2018-04-08T04:24:01.107Z,1001.69
2018-04-08T04:25:01.085Z,1001.70
2018-04-08T04:26:01.064Z,1001.69
2018-04-08T04:27:01.051Z,1001.68
2018-04-08T04:28:01.028Z,1001.66
2018-04-08T04:29:01.010Z,1001.67
2018-04-08T04:30:00.987Z,1001.69
2018-04-08T04:31:00.967Z,1001.67
2018-04-08T04:32:00.953Z,1001.69
2018-04-08T04:33:00.933Z,1001.69
2018-04-08T04:34:00.910Z,1001.67
2018-04-08T04:35:00.889Z,1001.70
2018-04-08T04:36:00.872Z,1001.69
2018-04-08T04:37:00.852Z,1001.69
2018-04-08T04:38:00.832Z,1001.65
2018-04-08T04:39:00.812Z,1001.66
2018-04-08T04:40:00.794Z,1001.68
2018-04-08T04:41:00.773Z,1001.66
2018-04-08T04:42:00.755Z,1001.63
2018-04-08T04:43:00.749Z,1001.63
2018-04-08T04:44:00.716Z,1001.63
2018-04-08T04:45:00.695Z,1001.63
2018-04-08T04:46:00.675Z,1001.62
2018-04-08T04:47:00.656Z,1001.63
2018-04-08T04:48:00.637Z,1001.61
2018-04-08T04:49:00.616Z,1001.64
2018-04-08T04:50:00.599Z,1001.61
2018-04-08T04:51:00.578Z,1001.63
2018-04-08T04:52:00.561Z,1001.62
2018-04-08T04:53:00.541Z,1001.60
2018-04-08T04:54:00.524Z,1001.65
2018-04-08T04:55:00.505Z,1001.64
2018-04-08T04:56:00.484Z,1001.64
2018-04-08T04:57:00.461Z,1001.65
2018-04-08T04:58:00.443Z,1001.59
2018-04-08T04:59:00.424Z,1001.62
2018-04-08T05:00:00.406Z,1001.58
2018-04-08T05:01:00.386Z,1001.60
2018-04-08T05:02:00.364Z,1001.60
2018-04-08T05:03:00.345Z,1001.57
2018-04-08T05:04:00.326Z,1001.60
2018-04-08T05:05:00.305Z,1001.58
2018-04-08T05:06:00.286Z,1001.59
2018-04-08T05:07:00.266Z,1001.61
2018-04-08T05:08:00.251Z,1001.58
2018-04-08T05:09:00.226Z,1001.58
2018-04-08T05:10:00.217Z,1001.56
2018-04-08T05:11:00.191Z,1001.57
2018-04-08T05:12:00.171Z,1001.54
2018-04-08T05:13:00.150Z,1001.53
2018-04-08T05:14:00.130Z,1001.50
2018-04-08T05:15:00.113Z,1001.54
2018-04-08T05:16:00.096Z,1001.54
2018-04-08T05:17:00.072Z,1001.52
2018-04-08T05:18:00.053Z,1001.52
2018-04-08T05:19:00.034Z,1001.52
2018-04-08T05:20:00.014Z,1001.53
2018-04-08T05:20:59.998Z,1001.49
2018-04-08T05:22:00.024Z,1001.52
2018-04-08T05:22:59.956Z,1001.52
2018-04-08T05:23:59.937Z,1001.49
2018-04-08T05:24:59.917Z,1001.53
2018-04-08T05:25:59.901Z,1001.56
2018-04-08T05:26:59.879Z,1001.53
2018-04-08T05:27:59.863Z,1001.55
2018-04-08T05:28:59.839Z,1001.55
2018-04-08T05:29:59.821Z,1001.53
2018-04-08T05:30:59.802Z,1001.55
2018-04-08T05:31:59.782Z,1001.51
2018-04-08T05:32:59.762Z,1001.52
2018-04-08T05:33:59.744Z,1001.51
2018-04-08T05:34:59.742Z,1001.55
2018-04-08T05:35:59.707Z,1001.52
2018-04-08T05:36:59.686Z,1001.54
2018-04-08T05:37:59.668Z,1001.53
2018-04-08T05:38:59.694Z,1001.56
2018-04-08T05:39:59.630Z,1001.58
2018-04-08T05:40:59.633Z,1001.57
2018-04-08T05:41:59.589Z,1001.62
2018-04-08T05:42:59.572Z,1001.60
2018-04-08T05:43:59.555Z,1001.56
2018-04-08T05:44:59.534Z,1001.57
2018-04-08T05:45:59.514Z,1001.56
2018-04-08T05:46:59.497Z,1001.57
2018-04-08T05:47:59.526Z,1001.61
2018-04-08T05:48:59.493Z,1001.61
2018-04-08T05:49:59.438Z,1001.62
2018-04-08T05:50:59.421Z,1001.62
2018-04-08T05:51:59.402Z,1001.58
2018-04-08T05:52:59.383Z,1001.65
2018-04-08T05:53:59.365Z,1001.62
2018-04-08T05:54:59.344Z,1001.63
2018-04-08T05:55:59.326Z,1001.63
2018-04-08T05:56:59.307Z,1001.67
2018-04-08T05:57:59.295Z,1001.66
2018-04-08T05:58:59.270Z,1001.65
2018-04-08T05:59:59.251Z,1001.67
2018-04-08T06:00:59.233Z,1001.64
2018-04-08T06:01:59.213Z,1001.66
2018-04-08T06:02:59.195Z,1001.66
2018-04-08T06:03:59.178Z,1001.67
2018-04-08T06:04:59.172Z,1001.64
2018-04-08T06:05:59.139Z,1001.66
2018-04-08T06:06:59.121Z,1001.68
2018-04-08T06:07:59.103Z,1001.70
2018-04-08T06:08:59.084Z,1001.70
2018-04-08T06:09:59.065Z,1001.70
2018-04-08T06:10:59.067Z,1001.63
2018-04-08T06:11:59.028Z,1001.65
2018-04-08T06:12:59.008Z,1001.63
2018-04-08T06:13:58.990Z,1001.63
2018-04-08T06:14:58.972Z,1001.66
2018-04-08T06:15:58.954Z,1001.65
2018-04-08T06:16:58.937Z,1001.60
2018-04-08T06:17:58.920Z,1001.63
2018-04-08T06:18:58.898Z,1001.64
2018-04-08T06:19:58.883Z,1001.66
2018-04-08T06:20:58.860Z,1001.65
2018-04-08T06:21:58.841Z,1001.70
2018-04-08T06:22:58.821Z,1001.66
2018-04-08T06:23:58.806Z,1001.65
2018-04-08T06:24:58.795Z,1001.66
2018-04-08T06:25:58.767Z,1001.62
2018-04-08T06:26:58.760Z,1001.61
2018-04-08T06:27:58.732Z,1001.63
2018-04-08T06:28:58.713Z,1001.59
2018-04-08T06:29:58.693Z,1001.62
2018-04-08T06:30:58.675Z,1001.59
2018-04-08T06:31:58.658Z,1001.60
2018-04-08T06:32:58.637Z,1001.56
2018-04-08T06:33:58.621Z,1001.62
2018-04-08T06:34:58.604Z,1001.60
2018-04-08T06:35:58.590Z,1001.56
2018-04-08T06:36:58.566Z,1001.63
2018-04-08T06:37:58.552Z,1001.62
2018-04-08T06:38:58.533Z,1001.57
2018-04-08T06:39:58.525Z,1001.60
2018-04-08T06:40:58.502Z,1001.58
2018-04-08T06:41:58.477Z,1001.61
2018-04-08T06:42:58.458Z,1001.59
2018-04-08T06:43:58.438Z,1001.63
2018-04-08T06:44:58.420Z,1001.64
2018-04-08T06:45:58.400Z,1001.63
2018-04-08T06:46:58.389Z,1001.65
2018-04-08T06:47:58.368Z,1001.68
2018-04-08T06:48:58.373Z,1001.65
2018-04-08T06:49:58.330Z,1001.65
2018-04-08T06:50:58.313Z,1001.65
2018-04-08T06:51:58.331Z,1001.64
2018-04-08T06:52:58.275Z,1001.65
2018-04-08T06:53:58.258Z,1001.67
2018-04-08T06:54:58.241Z,1001.67
2018-04-08T06:55:58.223Z,1001.71
2018-04-08T06:56:58.303Z,1001.71
2018-04-08T06:57:58.193Z,1001.71
2018-04-08T06:58:58.197Z,1001.72
2018-04-08T06:59:58.152Z,1001.73
2018-04-08T07:00:58.133Z,1001.76
2018-04-08T07:01:58.116Z,1001.73
2018-04-08T07:02:58.101Z,1001.78
2018-04-08T07:03:58.135Z,1001.78
2018-04-08T07:04:58.061Z,1001.76
2018-04-08T07:05:58.074Z,1001.71
2018-04-08T07:06:58.027Z,1001.76
2018-04-08T07:07:58.010Z,1001.75
2018-04-08T07:08:58.032Z,1001.73
2018-04-08T07:09:58.055Z,1001.75
2018-04-08T07:10:57.976Z,1001.76
2018-04-08T07:11:57.952Z,1001.71
2018-04-08T07:12:57.920Z,1001.70
2018-04-08T07:13:57.978Z,1001.69
2018-04-08T07:14:57.891Z,1001.70
2018-04-08T07:15:57.877Z,1001.71
2018-04-08T07:16:57.894Z,1001.73
2018-04-08T07:17:57.834Z,1001.75
2018-04-08T07:18:57.816Z,1001.70
2018-04-08T07:19:57.800Z,1001.73
2018-04-08T07:20:57.781Z,1001.74
2018-04-08T07:21:57.767Z,1001.73
2018-04-08T07:22:57.745Z,1001.74
2018-04-08T07:23:57.779Z,1001.74
2018-04-08T07:24:57.764Z,1001.69
2018-04-08T07:25:57.697Z,1001.67
2018-04-08T07:26:57.689Z,1001.69
2018-04-08T07:27:57.716Z,1001.66
2018-04-08T07:28:57.644Z,1001.65
2018-04-08T07:29:57.624Z,1001.71
2018-04-08T07:30:57.605Z,1001.66
2018-04-08T07:31:57.588Z,1001.66
2018-04-08T07:32:57.570Z,1001.65
2018-04-08T07:33:57.559Z,1001.68
2018-04-08T07:34:57.538Z,1001.64
2018-04-08T07:35:57.524Z,1001.66
2018-04-08T07:36:57.550Z,1001.65
2018-04-08T07:37:57.494Z,1001.61
2018-04-08T07:38:58.029Z,1001.62
2018-04-08T07:39:57.472Z,1001.63
2018-04-08T07:40:57.501Z,1001.58
2018-04-08T07:41:57.414Z,1001.57
2018-04-08T07:42:57.398Z,1001.58
2018-04-08T07:43:57.380Z,1001.60
2018-04-08T07:44:57.363Z,1001.59
2018-04-08T07:45:57.346Z,1001.60
2018-04-08T07:46:57.331Z,1001.62
2018-04-08T07:47:57.316Z,1001.59
2018-04-08T07:48:57.295Z,1001.56
2018-04-08T07:49:59.124Z,1001.55
2018-04-08T07:50:57.260Z,1001.55
2018-04-08T07:51:57.244Z,1001.59
2018-04-08T07:52:57.224Z,1001.59
2018-04-08T07:53:57.209Z,1001.61
2018-04-08T07:54:57.224Z,1001.61
2018-04-08T07:55:57.178Z,1001.63
2018-04-08T07:56:57.160Z,1001.64
2018-04-08T07:57:57.155Z,1001.65
2018-04-08T07:58:58.042Z,1001.65
2018-04-08T07:59:57.105Z,1001.64
2018-04-08T08:00:57.135Z,1001.65
2018-04-08T08:01:57.098Z,1001.65
2018-04-08T08:02:57.067Z,1001.61
2018-04-08T08:03:57.081Z,1001.58
2018-04-08T08:04:57.038Z,1001.68
2018-04-08T08:05:57.013Z,1001.69
2018-04-08T08:06:56.990Z,1001.67
2018-04-08T08:07:56.986Z,1001.68
2018-04-08T08:08:56.969Z,1001.71
2018-04-08T08:09:56.938Z,1001.66
2018-04-08T08:10:56.923Z,1001.69
2018-04-08T08:11:56.906Z,1001.70
2018-04-08T08:12:56.903Z,1001.70
2018-04-08T08:13:56.872Z,1001.69
2018-04-08T08:14:56.856Z,1001.68
2018-04-08T08:15:56.839Z,1001.76
2018-04-08T08:16:56.823Z,1001.74
2018-04-08T08:17:56.859Z,1001.75
2018-04-08T08:18:56.792Z,1001.73
2018-04-08T08:19:56.777Z,1001.70
2018-04-08T08:20:57.536Z,1001.71
2018-04-08T08:21:56.744Z,1001.68
2018-04-08T08:22:56.760Z,1001.71
2018-04-08T08:23:56.711Z,1001.68
2018-04-08T08:24:56.693Z,1001.71
2018-04-08T08:25:56.680Z,1001.73
2018-04-08T08:26:56.665Z,1001.70
2018-04-08T08:27:56.645Z,1001.72
2018-04-08T08:28:56.676Z,1001.74
2018-04-08T08:29:56.618Z,1001.73
2018-04-08T08:30:56.597Z,1001.75
2018-04-08T08:31:56.605Z,1001.74
2018-04-08T08:32:56.565Z,1001.75
2018-04-08T08:33:56.584Z,1001.74
2018-04-08T08:34:56.534Z,1001.79
2018-04-08T08:35:56.523Z,1001.77
2018-04-08T08:36:56.558Z,1001.79
2018-04-08T08:37:56.486Z,1001.75
2018-04-08T08:38:56.499Z,1001.75
2018-04-08T08:39:56.459Z,1001.74
2018-04-08T08:40:56.441Z,1001.70
2018-04-08T08:41:56.423Z,1001.81
2018-04-08T08:42:56.408Z,1001.79
2018-04-08T08:43:56.407Z,1001.79
2018-04-08T08:44:56.378Z,1001.77
2018-04-08T08:45:56.439Z,1001.73
2018-04-08T08:46:56.371Z,1001.73
2018-04-08T08:47:56.332Z,1001.73
2018-04-08T08:48:56.321Z,1001.73
2018-04-08T08:49:56.301Z,1001.79
2018-04-08T08:50:56.300Z,1001.77
2018-04-08T08:51:56.347Z,1001.77
2018-04-08T08:52:56.262Z,1001.75
2018-04-08T08:53:56.252Z,1001.75
2018-04-08T08:54:56.305Z,1001.74
2018-04-08T08:55:56.278Z,1001.73
2018-04-08T08:56:56.204Z,1001.73
2018-04-08T08:57:57.127Z,1001.73
2018-04-08T08:58:56.239Z,1001.71
2018-04-08T08:59:56.210Z,1001.72
2018-04-08T09:00:56.139Z,1001.72
2018-04-08T09:01:56.151Z,1001.69
2018-04-08T09:02:56.104Z,1001.68
2018-04-08T09:03:56.146Z,1001.73
2018-04-08T09:04:56.133Z,1001.70
2018-04-08T09:05:56.059Z,1001.72
2018-04-08T09:06:56.077Z,1001.72
2018-04-08T09:07:56.725Z,1001.72
2018-04-08T09:08:56.068Z,1001.72
2018-04-08T09:09:56.061Z,1001.76
2018-04-08T09:10:55.993Z,1001.75
2018-04-08T09:11:55.982Z,1001.75
2018-04-08T09:12:55.987Z,1001.75
2018-04-08T09:13:55.983Z,1001.74
2018-04-08T09:14:55.930Z,1001.73
2018-04-08T09:15:55.915Z,1001.76
2018-04-08T09:16:55.914Z,1001.73
2018-04-08T09:17:55.883Z,1001.70
2018-04-08T09:18:55.918Z,1001.66
2018-04-08T09:19:55.860Z,1001.69
2018-04-08T09:20:55.908Z,1001.69
2018-04-08T09:21:55.827Z,1001.73
2018-04-08T09:22:55.813Z,1001.67
2018-04-08T09:23:55.799Z,1001.70
2018-04-08T09:24:55.783Z,1001.70
2018-04-08T09:25:55.769Z,1001.72
2018-04-08T09:26:55.756Z,1001.73
2018-04-08T09:27:55.741Z,1001.72
2018-04-08T09:28:55.727Z,1001.71
2018-04-08T09:29:55.714Z,1001.71
2018-04-08T09:30:55.721Z,1001.71
2018-04-08T09:31:55.694Z,1001.69
2018-04-08T09:32:55.669Z,1001.73
2018-04-08T09:33:55.668Z,1001.70
2018-04-08T09:34:55.640Z,1001.69
2018-04-08T09:35:55.628Z,1001.70
2018-04-08T09:36:55.626Z,1001.70
2018-04-08T09:37:55.601Z,1001.67
2018-04-08T09:38:55.586Z,1001.72
2018-04-08T09:39:55.572Z,1001.76
2018-04-08T09:40:55.563Z,1001.73
2018-04-08T09:41:55.542Z,1001.73
2018-04-08T09:42:55.526Z,1001.70
2018-04-08T09:43:55.574Z,1001.74
2018-04-08T09:44:55.500Z,1001.71
2018-04-08T09:45:55.601Z,1001.68
2018-04-08T09:46:55.524Z,1001.71
2018-04-08T09:47:55.479Z,1001.70
2018-04-08T09:48:55.445Z,1001.64
2018-04-08T09:49:55.432Z,1001.63
2018-04-08T09:50:55.416Z,1001.52
2018-04-08T09:51:55.411Z,1001.54
2018-04-08T09:52:55.415Z,1001.56
2018-04-08T09:53:55.379Z,1001.58
2018-04-08T09:54:55.398Z,1001.60
2018-04-08T09:55:55.351Z,1001.58
2018-04-08T09:56:55.335Z,1001.52
2018-04-08T09:57:55.322Z,1001.55
2018-04-08T09:58:55.307Z,1001.52
2018-04-08T09:59:55.295Z,1001.57
2018-04-08T10:00:55.280Z,1001.51
2018-04-08T10:01:55.271Z,1001.48
2018-04-08T10:02:55.258Z,1001.51
2018-04-08T10:03:55.248Z,1001.52
2018-04-08T10:04:55.228Z,1001.53
2018-04-08T10:05:55.215Z,1001.56
2018-04-08T10:06:55.202Z,1001.60
2018-04-08T10:07:55.191Z,1001.56
2018-04-08T10:08:55.176Z,1001.57
2018-04-08T10:09:55.162Z,1001.60
2018-04-08T10:10:55.157Z,1001.56
2018-04-08T10:11:55.147Z,1001.61
2018-04-08T10:12:55.127Z,1001.64
2018-04-08T10:13:55.114Z,1001.54
2018-04-08T10:14:55.102Z,1001.58
2018-04-08T10:15:55.089Z,1001.54
2018-04-08T10:16:55.078Z,1001.55
2018-04-08T10:17:55.067Z,1001.63
2018-04-08T10:18:55.063Z,1001.74
2018-04-08T10:19:55.083Z,1001.81
2018-04-08T10:20:55.072Z,1001.73
2018-04-08T10:21:55.020Z,1001.58
2018-04-08T10:22:55.011Z,1001.60
2018-04-08T10:23:54.996Z,1001.64
2018-04-08T10:24:55.021Z,1001.55
2018-04-08T10:25:55.640Z,1001.56
2018-04-08T10:26:54.963Z,1001.44
2018-04-08T10:27:54.951Z,1001.45
2018-04-08T10:28:54.943Z,1001.46
2018-04-08T10:29:54.928Z,1001.47
2018-04-08T10:30:54.926Z,1001.41
2018-04-08T10:31:54.910Z,1001.41
2018-04-08T10:32:54.896Z,1001.43
2018-04-08T10:33:54.885Z,1001.43
2018-04-08T10:34:54.873Z,1001.41
2018-04-08T10:35:54.862Z,1001.45
2018-04-08T10:36:54.859Z,1001.53
2018-04-08T10:37:54.841Z,1001.62
2018-04-08T10:38:54.830Z,1001.53
2018-04-08T10:39:54.826Z,1001.48
2018-04-08T10:40:54.805Z,1001.48
2018-04-08T10:41:54.803Z,1001.47
2018-04-08T10:42:54.853Z,1001.44
2018-04-08T10:43:54.819Z,1001.43
2018-04-08T10:44:54.823Z,1001.38
2018-04-08T10:45:54.758Z,1001.39
2018-04-08T10:46:54.741Z,1001.38
2018-04-08T10:47:54.749Z,1001.36
2018-04-08T10:49:56.574Z,1001.31
2018-04-08T10:52:51.881Z,1001.29
2018-04-08T10:53:49.646Z,1001.25
2018-04-08T10:55:42.918Z,1001.25
2018-04-08T10:58:36.244Z,1001.29
2018-04-08T10:59:36.182Z,1001.32
2018-04-08T11:01:30.569Z,1001.29
2018-04-08T11:04:25.556Z,1001.38
2018-04-08T11:05:25.489Z,1001.44
2018-04-08T11:07:18.820Z,1001.38
2018-04-08T11:08:18.735Z,1001.39
2018-04-08T11:10:12.153Z,1001.51
2018-04-08T11:11:12.076Z,1001.54
2018-04-08T11:13:10.412Z,1001.51
2018-04-08T11:14:10.351Z,1001.42
2018-04-08T11:16:03.713Z,1001.37
2018-04-08T11:17:03.700Z,1001.42
2018-04-08T11:18:57.111Z,1001.36
2018-04-08T11:19:57.052Z,1001.30
2018-04-08T11:21:50.423Z,1001.32
2018-04-08T11:22:50.420Z,1001.35
2018-04-08T11:24:44.828Z,1001.39
2018-04-08T11:25:44.772Z,1001.37
2018-04-08T11:27:38.145Z,1001.37
2018-04-08T11:28:38.134Z,1001.37
2018-04-08T11:30:31.664Z,1001.47
2018-04-08T11:31:31.623Z,1001.43
2018-04-08T11:33:25.030Z,1001.39
2018-04-08T11:34:24.978Z,1001.39
2018-04-08T11:36:18.354Z,1001.48
2018-04-08T11:37:18.350Z,1001.51
2018-04-08T11:39:11.771Z,1001.49
2018-04-08T11:40:11.723Z,1001.53
2018-04-08T11:42:05.103Z,1001.49
2018-04-08T11:43:05.096Z,1001.43
2018-04-08T11:44:58.607Z,1001.52
2018-04-08T11:45:58.492Z,1001.50
2018-04-08T11:47:51.853Z,1001.42
2018-04-08T11:48:51.860Z,1001.41
2018-04-08T11:50:45.381Z,1001.37
2018-04-08T11:51:45.299Z,1001.37
2018-04-08T11:53:38.745Z,1001.35
2018-04-08T11:54:38.793Z,1001.34
2018-04-08T11:56:32.115Z,1001.37
2018-04-08T11:57:32.066Z,1001.37
2018-04-08T11:59:25.515Z,1001.25
2018-04-08T12:00:25.482Z,1001.26
2018-04-08T12:02:18.838Z,1001.25
2018-04-08T12:03:18.885Z,1001.24
2018-04-08T12:05:12.265Z,1001.22
2018-04-08T12:06:12.256Z,1001.25
2018-04-08T12:08:06.602Z,1001.22
2018-04-08T12:09:06.597Z,1001.18
2018-04-08T12:11:00.076Z,1001.23
2018-04-08T12:11:59.997Z,1001.20
2018-04-08T12:13:53.412Z,1001.14
2018-04-08T12:14:53.403Z,1001.16
2018-04-08T12:16:46.764Z,1001.15
2018-04-08T12:17:46.756Z,1001.17
2018-04-08T12:19:40.182Z,1001.19
2018-04-08T12:20:40.137Z,1001.18
2018-04-08T12:22:33.530Z,1001.17
2018-04-08T12:23:33.530Z,1001.13
2018-04-08T12:25:31.698Z,1001.14
2018-04-08T12:26:32.536Z,1001.14
2018-04-08T12:28:25.026Z,1001.13
2018-04-08T12:29:25.034Z,1001.12
2018-04-08T12:31:18.509Z,1001.06
2018-04-08T12:32:18.453Z,1001.01
2018-04-08T12:34:12.945Z,1001.02
2018-04-08T12:35:12.790Z,1000.87
2018-04-08T12:37:06.225Z,1000.84
2018-04-08T12:38:06.175Z,1000.79
2018-04-08T12:39:59.652Z,1000.76
2018-04-08T12:41:00.162Z,1000.87
2018-04-08T12:42:52.970Z,1000.76
2018-04-08T12:43:52.942Z,1000.80